Barrytown, New York
Current Conditions -  °F | °C
As of 1:53 AM on Sunday 21 Dec 2014 (Local Time) from KPOU Reporting Station
Light Snow Light Snow  
Wind Chill: 29°   Ceiling: 2100
Heat Index: 29°   Visibility: 4mi
Dew Point: 23°   Wind: 3mph
Humidity: 78%   Direction: 30°NNE
Pressure: 30.29"   Gusts: NA
Location:  42°N, 73.92°W
Report Text: KPOU 210653Z AUTO 03003KT 4SM -SN BKN021 OVC031 M02/M05 A3029 RMK AO2 SNE03B51 SLP256 P0000 T10171050 TSNO
Loading
Personal Weather Stations






























Interactive Weather Map New forecast layout! Learn more

10-Day Weather Forecast

Advertisements
Track Severe Weather on mobile